Time;durP1;ratioP1;P1;durP2;ratioP2;P2;SDS_P1;SDS_P2;PMS_P1;PMS_P2;Temp;Humidity;BMP_temperature;BMP_pressure;BME280_temperature;BME280_humidity;BME280_pressure;Samples;Min_cycle;Max_cycle;Signal;HPM_P1;HPM_P2
2023/10/02 00:00:43;;;;;;;;;;;24.90;69.40;;;;;;5057132;28;43090;-76
2023/10/02 00:03:09;;;;;;;;;;;25.00;69.90;;;;;;5029533;28;43639;-76
2023/10/02 00:05:50;;;;;;;;;;;25.10;72.00;;;;;;5056568;28;43240;-76
2023/10/02 00:08:31;;;;;;;;;;;25.00;71.60;;;;;;5044704;28;43014;-77
2023/10/02 00:11:05;;;;;;;;;;;25.10;71.80;;;;;;5045179;28;43519;-77
2023/10/02 00:13:32;;;;;;;;;;;25.00;71.50;;;;;;5045459;28;43264;-75
2023/10/02 00:15:58;;;;;;;;;;;25.00;71.90;;;;;;5046196;28;42920;-77
2023/10/02 00:18:27;;;;;;;;;;;24.90;71.60;;;;;;5027716;28;42843;-77
2023/10/02 00:21:17;;;;;;;;;;;25.00;71.70;;;;;;5045473;28;44010;-77
2023/10/02 00:23:59;;;;;;;;;;;25.10;71.70;;;;;;5044304;28;42957;-78
2023/10/02 00:26:24;;;;;;;;;;;25.10;71.70;;;;;;5045628;28;43008;-77
2023/10/02 00:28:50;;;;;;;;;;;25.40;71.70;;;;;;5045366;28;43072;-76
2023/10/02 00:31:32;;;;;;;;;;;24.90;71.40;;;;;;5045940;28;42954;-74
2023/10/02 00:33:59;;;;;;;;;;;24.90;71.40;;;;;;5045987;28;43038;-76
2023/10/02 00:36:25;;;;;;;;;;;25.10;71.90;;;;;;5045353;28;43065;-76
2023/10/02 00:38:51;;;;;;;;;;;25.10;71.20;;;;;;5044927;28;43014;-77
2023/10/02 00:41:16;;;;;;;;;;;24.80;71.60;;;;;;5045816;28;43523;-76
2023/10/02 00:43:45;;;;;;;;;;;25.10;71.40;;;;;;5045013;28;42993;-77
2023/10/02 00:46:23;;;;;;;;;;;25.00;71.20;;;;;;5045452;28;43483;-77
2023/10/02 00:48:50;;;;;;;;;;;25.20;71.30;;;;;;5045260;28;43265;-77
2023/10/02 00:51:15;;;;;;;;;;;25.00;71.20;;;;;;5044778;28;44540;-78
2023/10/02 00:53:46;;;;;;;;;;;25.10;70.70;;;;;;5045284;28;43034;-78
2023/10/02 00:56:30;;;;;;;;;;;24.90;71.10;;;;;;5044917;28;43310;-77
2023/10/02 00:59:00;;;;;;;;;;;24.90;71.30;;;;;;5044068;28;42981;-78
2023/10/02 01:01:26;;;;;;;;;;;25.00;70.30;;;;;;5044478;28;44304;-77
2023/10/02 01:04:08;;;;;;;;;;;24.80;71.10;;;;;;5045585;28;43152;-76
2023/10/02 01:06:54;;;;;;;;;;;25.20;69.00;;;;;;5044180;28;44798;-77
2023/10/02 01:09:25;;;;;;;;;;;24.90;71.00;;;;;;5043643;28;43223;-78
2023/10/02 01:11:51;;;;;;;;;;;24.80;68.60;;;;;;5045238;28;42880;-77
2023/10/02 01:14:40;;;;;;;;;;;24.90;70.80;;;;;;5044701;28;44016;-77
2023/10/02 01:17:03;;;;;;;;;;;25.00;71.00;;;;;;5044305;28;42996;-77
2023/10/02 01:19:52;;;;;;;;;;;24.90;70.80;;;;;;5044345;28;43089;-78
2023/10/02 01:22:27;;;;;;;;;;;25.00;70.80;;;;;;5042397;28;44542;-75
2023/10/02 01:25:06;;;;;;;;;;;24.90;70.70;;;;;;5043768;28;42915;-78
2023/10/02 01:27:40;;;;;;;;;;;24.90;70.70;;;;;;5044030;28;43289;-76
2023/10/02 01:30:15;;;;;;;;;;;25.00;70.20;;;;;;5043137;28;42969;-75
2023/10/02 01:33:06;;;;;;;;;;;24.80;70.50;;;;;;5031043;28;43751;-76
2023/10/02 01:35:48;;;;;;;;;;;24.70;68.60;;;;;;5043694;28;43088;-78
2023/10/02 01:38:27;;;;;;;;;;;24.90;68.80;;;;;;5042400;28;43245;-77
2023/10/02 01:41:03;;;;;;;;;;;25.00;68.30;;;;;;5043881;28;42995;-77
2023/10/02 01:43:32;;;;;;;;;;;24.90;70.00;;;;;;5043732;28;43016;-78
2023/10/02 01:46:00;;;;;;;;;;;24.70;70.20;;;;;;5030373;28;42873;-77
2023/10/02 01:48:44;;;;;;;;;;;24.80;70.80;;;;;;5044008;28;43586;-77
2023/10/02 01:51:20;;;;;;;;;;;24.90;70.40;;;;;;5043119;28;43219;-76
2023/10/02 01:53:48;;;;;;;;;;;24.90;70.50;;;;;;5025531;28;44197;-77
2023/10/02 01:56:15;;;;;;;;;;;24.70;67.80;;;;;;5046318;28;42999;-77
2023/10/02 01:58:44;;;;;;;;;;;24.90;70.10;;;;;;5047907;28;42964;-77
2023/10/02 02:01:10;;;;;;;;;;;25.00;70.20;;;;;;5049553;28;42973;-77
2023/10/02 02:03:36;;;;;;;;;;;24.90;69.80;;;;;;5050302;28;43350;-78
2023/10/02 02:06:11;;;;;;;;;;;24.90;69.60;;;;;;5043786;28;42954;-78
2023/10/02 02:08:37;;;;;;;;;;;24.70;68.00;;;;;;5043700;28;42982;-74
2023/10/02 02:11:16;;;;;;;;;;;24.80;69.10;;;;;;5043780;28;43006;-78
2023/10/02 02:13:45;;;;;;;;;;;24.90;66.80;;;;;;5044473;28;43597;-77
2023/10/02 02:16:15;;;;;;;;;;;24.70;68.80;;;;;;5043369;28;42912;-76
2023/10/02 02:18:42;;;;;;;;;;;24.80;66.30;;;;;;5043365;28;42927;-78
2023/10/02 02:21:12;;;;;;;;;;;24.70;68.40;;;;;;5052462;28;42816;-77
2023/10/02 02:23:38;;;;;;;;;;;24.70;68.10;;;;;;5046375;28;43008;-75
2023/10/02 02:26:03;;;;;;;;;;;24.80;68.80;;;;;;5044301;28;42926;-75
2023/10/02 02:28:29;;;;;;;;;;;24.80;67.90;;;;;;5043156;28;43144;-76
2023/10/02 02:30:55;;;;;;;;;;;24.60;68.20;;;;;;5043953;28;43070;-77
2023/10/02 02:33:34;;;;;;;;;;;24.90;68.50;;;;;;5025176;28;43509;-77
2023/10/02 02:36:06;;;;;;;;;;;24.50;68.30;;;;;;5043159;28;43062;-77
2023/10/02 02:38:33;;;;;;;;;;;24.80;67.00;;;;;;5042377;28;42820;-76
2023/10/02 02:41:07;;;;;;;;;;;24.70;68.50;;;;;;5043637;28;43142;-76
2023/10/02 02:43:34;;;;;;;;;;;24.80;66.70;;;;;;5043830;28;42968;-75
2023/10/02 02:46:00;;;;;;;;;;;24.90;68.90;;;;;;5043402;28;43016;-76
2023/10/02 02:48:43;;;;;;;;;;;24.80;68.60;;;;;;5042993;28;43386;-75
2023/10/02 02:51:14;;;;;;;;;;;24.70;68.00;;;;;;5043230;28;42942;-79
2023/10/02 02:53:40;;;;;;;;;;;24.80;68.70;;;;;;5042888;28;42861;-77
2023/10/02 02:56:15;;;;;;;;;;;24.90;68.30;;;;;;5043804;28;42927;-76
2023/10/02 02:58:44;;;;;;;;;;;24.70;68.80;;;;;;5042701;28;43181;-75
2023/10/02 03:01:22;;;;;;;;;;;24.90;68.60;;;;;;5043418;28;43079;-77
2023/10/02 03:03:51;;;;;;;;;;;24.70;65.50;;;;;;5043464;28;43520;-76
2023/10/02 03:06:23;;;;;;;;;;;24.80;68.20;;;;;;5042972;28;42903;-77
2023/10/02 03:08:52;;;;;;;;;;;24.80;66.60;;;;;;5042866;28;42804;-75
2023/10/02 03:11:22;;;;;;;;;;;24.90;66.70;;;;;;5043554;28;42813;-78
2023/10/02 03:13:48;;;;;;;;;;;24.80;66.70;;;;;;5042681;28;43054;-78
2023/10/02 03:16:17;;;;;;;;;;;24.80;68.60;;;;;;5044035;28;42815;-78
2023/10/02 03:18:48;;;;;;;;;;;24.80;69.20;;;;;;5042882;28;43447;-76
2023/10/02 03:21:14;;;;;;;;;;;24.80;67.90;;;;;;5043785;28;43139;-77
2023/10/02 03:23:42;;;;;;;;;;;24.50;69.10;;;;;;5045181;28;42909;-78
2023/10/02 03:29:02;;;;;;;;;;;24.70;66.20;;;;;;5046510;28;43387;-77
2023/10/02 03:31:40;;;;;;;;;;;24.70;68.90;;;;;;5045411;28;43632;-77
2023/10/02 03:34:27;;;;;;;;;;;24.80;66.20;;;;;;5034587;28;43730;-78
2023/10/02 03:36:55;;;;;;;;;;;24.70;68.40;;;;;;5046667;28;42946;-78
2023/10/02 03:39:23;;;;;;;;;;;24.80;69.20;;;;;;5046128;28;42846;-77
2023/10/02 03:41:50;;;;;;;;;;;24.70;66.30;;;;;;5046805;28;43027;-78
2023/10/02 03:44:16;;;;;;;;;;;24.70;68.90;;;;;;5045878;28;43003;-77
2023/10/02 03:46:42;;;;;;;;;;;24.70;68.60;;;;;;5046522;28;43392;-78
2023/10/02 03:49:08;;;;;;;;;;;24.70;68.50;;;;;;5046814;28;42868;-76
2023/10/02 03:51:40;;;;;;;;;;;24.60;68.20;;;;;;5045572;28;43094;-76
2023/10/02 03:54:20;;;;;;;;;;;24.70;66.20;;;;;;5045317;28;42949;-76
2023/10/02 03:56:49;;;;;;;;;;;24.60;67.80;;;;;;5045830;28;43057;-76
2023/10/02 03:59:20;;;;;;;;;;;24.70;65.70;;;;;;5046007;28;42840;-76
2023/10/02 04:01:47;;;;;;;;;;;24.60;65.60;;;;;;5044955;28;43145;-77
2023/10/02 04:06:45;;;;;;;;;;;24.70;66.80;;;;;;5034803;28;43010;-77
2023/10/02 04:09:26;;;;;;;;;;;24.60;67.00;;;;;;5042665;28;43018;-78
2023/10/02 04:11:54;;;;;;;;;;;24.70;68.30;;;;;;5041439;28;42974;-77
2023/10/02 04:14:33;;;;;;;;;;;24.60;67.50;;;;;;5037859;28;42936;-77
2023/10/02 04:17:14;;;;;;;;;;;24.80;67.80;;;;;;5040397;28;43056;-77
2023/10/02 04:19:51;;;;;;;;;;;24.60;65.20;;;;;;5035260;28;42908;-76
2023/10/02 04:22:25;;;;;;;;;;;24.60;67.40;;;;;;5048084;28;42927;-77
2023/10/02 04:24:53;;;;;;;;;;;24.60;67.20;;;;;;5032947;28;43599;-79
2023/10/02 04:27:27;;;;;;;;;;;24.70;67.30;;;;;;5036715;28;43131;-78
2023/10/02 04:32:34;;;;;;;;;;;24.60;66.60;;;;;;5043606;28;42931;-77
2023/10/02 04:35:02;;;;;;;;;;;24.60;67.10;;;;;;5043869;28;43073;-77
2023/10/02 04:37:31;;;;;;;;;;;24.60;67.20;;;;;;5045472;28;42872;-80
2023/10/02 04:42:29;;;;;;;;;;;24.50;67.10;;;;;;5047313;28;42975;-80
2023/10/02 04:44:58;;;;;;;;;;;24.60;65.20;;;;;;5035942;28;43464;-80
2023/10/02 04:47:26;;;;;;;;;;;24.70;67.50;;;;;;5028218;28;43023;-80
2023/10/02 04:52:56;;;;;;;;;;;24.70;65.10;;;;;;5037480;28;42974;-82
2023/10/02 04:55:24;;;;;;;;;;;24.60;65.10;;;;;;5043851;28;43169;-81
2023/10/02 04:58:02;;;;;;;;;;;24.80;65.40;;;;;;5043318;28;43233;-77
2023/10/02 05:00:34;;;;;;;;;;;24.70;65.30;;;;;;5044723;28;43104;-77
2023/10/02 05:03:09;;;;;;;;;;;24.60;65.60;;;;;;5025549;28;43150;-81
2023/10/02 05:05:38;;;;;;;;;;;24.60;65.10;;;;;;5043688;28;43544;-76
2023/10/02 05:08:10;;;;;;;;;;;24.60;67.40;;;;;;5045647;28;42855;-81
2023/10/02 05:10:37;;;;;;;;;;;24.50;66.70;;;;;;5043586;28;43706;-80
2023/10/02 05:13:05;;;;;;;;;;;24.60;67.30;;;;;;5044581;28;42986;-82
2023/10/02 05:15:31;;;;;;;;;;;24.40;64.70;;;;;;5044800;28;42991;-79
2023/10/02 05:17:57;;;;;;;;;;;24.50;64.90;;;;;;5044721;28;42915;-79
2023/10/02 05:20:26;;;;;;;;;;;24.30;65.40;;;;;;5044174;28;42929;-80
2023/10/02 05:22:58;;;;;;;;;;;24.40;65.90;;;;;;5044956;28;42936;-76
2023/10/02 05:25:25;;;;;;;;;;;24.20;66.10;;;;;;5044357;28;42903;-78
2023/10/02 05:27:55;;;;;;;;;;;24.00;66.20;;;;;;5045046;28;43033;-78
2023/10/02 05:30:21;;;;;;;;;;;23.90;66.20;;;;;;5044348;28;42860;-81
2023/10/02 05:32:56;;;;;;;;;;;23.60;81.40;;;;;;5044719;28;43023;-81
2023/10/02 05:35:23;;;;;;;;;;;23.60;69.60;;;;;;5025459;28;43285;-78
2023/10/02 05:37:51;;;;;;;;;;;23.70;71.80;;;;;;5044753;28;43139;-80
2023/10/02 05:48:07;;;;;;;;;;;23.50;82.30;;;;;;5034692;28;42904;-80
2023/10/02 05:50:33;;;;;;;;;;;23.50;68.20;;;;;;5037344;28;44298;-79
2023/10/02 05:52:59;;;;;;;;;;;23.40;68.90;;;;;;5045057;28;43216;-82
2023/10/02 05:55:25;;;;;;;;;;;23.30;68.90;;;;;;5044982;28;43566;-80
2023/10/02 05:57:54;;;;;;;;;;;23.40;68.70;;;;;;5044732;28;43134;-79
2023/10/02 06:00:20;;;;;;;;;;;23.40;69.10;;;;;;5045037;28;44346;-79
2023/10/02 06:02:58;;;;;;;;;;;23.30;68.90;;;;;;5044113;28;43092;-79
2023/10/02 06:05:23;;;;;;;;;;;23.20;69.10;;;;;;5043938;28;43843;-79
2023/10/02 06:07:51;;;;;;;;;;;23.10;69.40;;;;;;5033982;28;42954;-79
2023/10/02 06:10:25;;;;;;;;;;;23.20;69.30;;;;;;5025976;28;44642;-79
2023/10/02 06:13:05;;;;;;;;;;;23.20;69.10;;;;;;5042867;28;43076;-79
2023/10/02 06:15:43;;;;;;;;;;;23.20;67.00;;;;;;5043613;28;43954;-79
2023/10/02 06:18:09;;;;;;;;;;;23.20;67.20;;;;;;5044278;28;42939;-79
2023/10/02 06:20:35;;;;;;;;;;;23.30;69.70;;;;;;5044120;28;43838;-79
2023/10/02 06:23:19;;;;;;;;;;;23.20;69.90;;;;;;5043931;28;42866;-79
2023/10/02 06:25:46;;;;;;;;;;;23.30;67.80;;;;;;5034857;28;43531;-79
2023/10/02 06:28:25;;;;;;;;;;;23.30;69.70;;;;;;5044272;28;42986;-80
2023/10/02 06:30:51;;;;;;;;;;;23.30;69.00;;;;;;5033299;28;43379;-80
2023/10/02 06:33:21;;;;;;;;;;;23.60;70.30;;;;;;5044721;28;42919;-80
2023/10/02 06:36:03;;;;;;;;;;;23.40;68.70;;;;;;5044118;28;43355;-80
2023/10/02 06:38:32;;;;;;;;;;;23.30;70.50;;;;;;5040107;28;43504;-79
2023/10/02 06:40:59;;;;;;;;;;;23.40;70.00;;;;;;5036383;28;43299;-80
2023/10/02 06:43:32;;;;;;;;;;;23.50;69.90;;;;;;5043640;28;43068;-80
2023/10/02 06:46:19;;;;;;;;;;;23.60;70.00;;;;;;5044334;28;43549;-80
2023/10/02 06:48:46;;;;;;;;;;;23.60;67.30;;;;;;5030240;28;42979;-79
2023/10/02 06:51:15;;;;;;;;;;;23.80;69.60;;;;;;5042812;28;43932;-80
2023/10/02 06:53:43;;;;;;;;;;;23.70;67.10;;;;;;5037658;28;42966;-80
2023/10/02 06:56:12;;;;;;;;;;;23.90;68.60;;;;;;5042896;28;43454;-79
2023/10/02 06:58:49;;;;;;;;;;;23.90;67.20;;;;;;5043481;28;42867;-79
2023/10/02 07:01:26;;;;;;;;;;;23.70;68.80;;;;;;5038078;28;43227;-79
2023/10/02 07:03:51;;;;;;;;;;;23.90;67.40;;;;;;5042460;28;43014;-80
2023/10/02 07:06:20;;;;;;;;;;;23.90;69.80;;;;;;5047628;28;43686;-80
2023/10/02 07:09:09;;;;;;;;;;;24.90;68.00;;;;;;5042467;28;42841;-80
2023/10/02 07:11:35;;;;;;;;;;;24.20;67.40;;;;;;5036269;28;43684;-80
2023/10/02 07:14:03;;;;;;;;;;;23.90;68.80;;;;;;5043393;28;42939;-79
2023/10/02 07:16:32;;;;;;;;;;;24.10;69.40;;;;;;5043722;28;43499;-78
2023/10/02 07:18:59;;;;;;;;;;;24.00;67.00;;;;;;5047568;28;43009;-80
2023/10/02 07:21:27;;;;;;;;;;;23.90;69.60;;;;;;5051255;28;42870;-80
2023/10/02 07:23:53;;;;;;;;;;;24.10;69.80;;;;;;5042749;28;44340;-79
2023/10/02 07:26:19;;;;;;;;;;;23.90;70.00;;;;;;5042477;28;43862;-80
2023/10/02 07:28:51;;;;;;;;;;;24.00;69.90;;;;;;5043388;28;42984;-80
2023/10/02 07:31:18;;;;;;;;;;;24.20;70.20;;;;;;5023387;28;44717;-79
2023/10/02 07:33:44;;;;;;;;;;;23.90;70.20;;;;;;5047888;28;42962;-80
2023/10/02 07:36:16;;;;;;;;;;;23.90;70.00;;;;;;5051314;28;43412;-80
2023/10/02 07:38:42;;;;;;;;;;;23.80;67.70;;;;;;5042034;28;43015;-80
2023/10/02 07:41:14;;;;;;;;;;;24.20;69.90;;;;;;5043465;28;43912;-82
2023/10/02 07:43:41;;;;;;;;;;;24.00;69.50;;;;;;5032772;28;43073;-82
2023/10/02 07:46:18;;;;;;;;;;;24.10;69.60;;;;;;5041845;28;43069;-78
2023/10/02 07:48:56;;;;;;;;;;;24.10;67.90;;;;;;5042367;28;43260;-82
2023/10/02 07:51:36;;;;;;;;;;;23.90;69.70;;;;;;5038954;28;44425;-79
2023/10/02 07:54:02;;;;;;;;;;;24.20;67.70;;;;;;5022872;28;43673;-81
2023/10/02 07:56:29;;;;;;;;;;;24.10;70.10;;;;;;5042067;28;43776;-82
2023/10/02 07:58:55;;;;;;;;;;;24.10;70.30;;;;;;5042219;28;42949;-80
2023/10/02 08:01:23;;;;;;;;;;;24.20;70.30;;;;;;5042341;28;43154;-83
2023/10/02 08:03:49;;;;;;;;;;;24.00;69.60;;;;;;5042464;28;43026;-77
2023/10/02 08:06:33;;;;;;;;;;;24.00;70.20;;;;;;5041831;28;43464;-78
2023/10/02 08:11:51;;;;;;;;;;;23.90;70.00;;;;;;5043803;28;43041;-81
2023/10/02 08:14:38;;;;;;;;;;;24.00;70.50;;;;;;5042431;28;42935;-81
2023/10/02 08:17:27;;;;;;;;;;;24.00;68.40;;;;;;5043168;28;42996;-83
2023/10/02 08:19:59;;;;;;;;;;;24.10;68.30;;;;;;5041462;28;43054;-79
2023/10/02 08:22:26;;;;;;;;;;;24.10;70.50;;;;;;5045299;28;43795;-79
2023/10/02 08:24:52;;;;;;;;;;;24.30;70.80;;;;;;5045110;28;43086;-77
2023/10/02 08:27:18;;;;;;;;;;;24.00;70.50;;;;;;5043911;28;43723;-78
2023/10/02 08:29:44;;;;;;;;;;;25.60;71.10;;;;;;5045642;28;42987;-75
2023/10/02 08:32:10;;;;;;;;;;;24.20;70.00;;;;;;5045767;28;43480;-77
2023/10/02 08:34:36;;;;;;;;;;;24.30;70.50;;;;;;5045243;28;42965;-84
2023/10/02 08:37:05;;;;;;;;;;;24.20;70.10;;;;;;5044011;28;43309;-79
2023/10/02 08:39:37;;;;;;;;;;;24.30;68.90;;;;;;5045463;28;43384;-80
2023/10/02 08:42:11;;;;;;;;;;;24.20;68.30;;;;;;5042479;28;43782;-81
2023/10/02 08:44:38;;;;;;;;;;;24.20;71.00;;;;;;5044290;28;43685;-79
2023/10/02 08:47:22;;;;;;;;;;;24.30;71.80;;;;;;5044862;28;43710;-83
2023/10/02 08:49:50;;;;;;;;;;;24.30;71.90;;;;;;5041550;28;43022;-79
2023/10/02 08:52:38;;;;;;;;;;;24.10;72.00;;;;;;5045115;28;44057;-78
2023/10/02 08:55:51;;;;;;;;;;;24.10;72.10;;;;;;5044416;28;42964;-79
2023/10/02 08:58:20;;;;;;;;;;;24.30;70.20;;;;;;5007451;28;43900;-81
2023/10/02 09:03:48;;;;;;;;;;;24.10;69.90;;;;;;5026027;28;43983;-80
2023/10/02 09:11:39;;;;;;;;;;;24.10;71.70;;;;;;5031346;28;42927;-78
2023/10/02 09:14:21;;;;;;;;;;;24.30;71.40;;;;;;5047136;28;43050;-77
2023/10/02 09:17:07;;;;;;;;;;;24.30;71.30;;;;;;5044713;28;43283;-78
2023/10/02 09:19:37;;;;;;;;;;;24.30;72.00;;;;;;5035167;28;43507;-76
2023/10/02 09:22:06;;;;;;;;;;;23.70;69.00;;;;;;5039465;28;43083;-79
2023/10/02 09:24:35;;;;;;;;;;;24.20;71.80;;;;;;5044788;28;43615;-78
2023/10/02 09:29:47;;;;;;;;;;;24.30;71.30;;;;;;5039282;28;42825;-78
2023/10/02 09:32:21;;;;;;;;;;;24.40;71.20;;;;;;5044023;28;43026;-80
2023/10/02 09:35:10;;;;;;;;;;;24.30;71.10;;;;;;5043949;28;43451;-79
2023/10/02 09:37:37;;;;;;;;;;;24.40;68.80;;;;;;5043453;28;43046;-79
2023/10/02 09:40:03;;;;;;;;;;;24.40;71.00;;;;;;5043906;28;43975;-79
2023/10/02 09:42:33;;;;;;;;;;;24.30;70.30;;;;;;5044205;28;43104;-83
2023/10/02 09:45:08;;;;;;;;;;;24.30;71.00;;;;;;5026006;28;45494;-79
2023/10/02 09:47:34;;;;;;;;;;;24.30;70.80;;;;;;5044819;28;42873;-79
2023/10/02 09:50:12;;;;;;;;;;;24.30;70.80;;;;;;5043473;28;42958;-78
2023/10/02 09:52:40;;;;;;;;;;;24.40;70.80;;;;;;5043265;28;42993;-80
2023/10/02 09:55:10;;;;;;;;;;;24.30;70.80;;;;;;5043604;28;43022;-83
2023/10/02 09:57:38;;;;;;;;;;;24.30;68.40;;;;;;5037785;28;43007;-79
2023/10/02 10:00:34;;;;;;;;;;;24.40;71.00;;;;;;5056108;28;43972;-78
2023/10/02 10:03:30;;;;;;;;;;;24.20;68.30;;;;;;5057483;28;43317;-78
2023/10/02 10:06:16;;;;;;;;;;;24.30;68.10;;;;;;5010694;28;44182;-77
2023/10/02 10:11:38;;;;;;;;;;;24.40;67.60;;;;;;5040667;28;43005;-76
2023/10/02 10:14:36;;;;;;;;;;;24.30;69.80;;;;;;5036247;28;43147;-82
2023/10/02 10:17:13;;;;;;;;;;;24.60;67.30;;;;;;5039183;28;43119;-78
2023/10/02 10:19:41;;;;;;;;;;;24.20;69.30;;;;;;5042635;28;43043;-78
2023/10/02 10:22:26;;;;;;;;;;;24.40;69.60;;;;;;5036855;28;43961;-79
2023/10/02 10:27:39;;;;;;;;;;;24.40;67.90;;;;;;5038524;28;43615;-82
2023/10/02 10:30:26;;;;;;;;;;;24.50;67.10;;;;;;5035455;28;43086;-81
2023/10/02 10:33:15;;;;;;;;;;;24.30;68.50;;;;;;5029419;28;43014;-80
2023/10/02 10:35:48;;;;;;;;;;;24.40;66.60;;;;;;5025471;28;43067;-82
2023/10/02 10:40:54;;;;;;;;;;;24.30;66.50;;;;;;5042478;28;43239;-80
2023/10/02 10:43:26;;;;;;;;;;;24.40;68.90;;;;;;5024314;28;44573;-77
2023/10/02 10:45:54;;;;;;;;;;;24.50;66.70;;;;;;5042493;28;43046;-82
2023/10/02 10:48:23;;;;;;;;;;;24.50;69.60;;;;;;5042025;28;43358;-79
2023/10/02 10:51:06;;;;;;;;;;;24.20;69.30;;;;;;5042480;28;43145;-79
2023/10/02 10:53:32;;;;;;;;;;;24.30;67.00;;;;;;5031207;28;43770;-80
2023/10/02 10:56:03;;;;;;;;;;;24.20;68.90;;;;;;5040645;28;43083;-77
2023/10/02 10:58:33;;;;;;;;;;;24.50;67.10;;;;;;5042798;28;43030;-82
2023/10/02 11:01:03;;;;;;;;;;;24.50;67.00;;;;;;5041592;28;43085;-82
2023/10/02 11:03:30;;;;;;;;;;;24.60;69.40;;;;;;5041339;28;43675;-80
2023/10/02 11:06:01;;;;;;;;;;;24.30;69.30;;;;;;5036803;28;43026;-83
2023/10/02 11:08:28;;;;;;;;;;;24.50;66.90;;;;;;5035725;28;43375;-82
2023/10/02 11:11:04;;;;;;;;;;;24.60;69.30;;;;;;5017683;28;43158;-82
2023/10/02 11:13:51;;;;;;;;;;;24.40;66.70;;;;;;5016835;28;44574;-82
2023/10/02 11:16:30;;;;;;;;;;;24.50;66.80;;;;;;5031679;28;43065;-80
2023/10/02 11:19:14;;;;;;;;;;;24.50;66.80;;;;;;5029111;28;44076;-78
2023/10/02 11:21:46;;;;;;;;;;;24.50;66.90;;;;;;5037210;28;42976;-80
2023/10/02 11:24:20;;;;;;;;;;;24.30;69.20;;;;;;5039939;28;43372;-79
2023/10/02 11:26:45;;;;;;;;;;;24.50;66.90;;;;;;5025108;28;42891;-82
2023/10/02 11:29:20;;;;;;;;;;;24.60;69.40;;;;;;5043027;28;43557;-80
2023/10/02 11:32:19;;;;;;;;;;;24.50;66.90;;;;;;5040473;28;42891;-80
2023/10/02 11:34:48;;;;;;;;;;;24.70;67.20;;;;;;5023203;28;44154;-84
2023/10/02 11:37:14;;;;;;;;;;;24.40;67.30;;;;;;5040205;28;43116;-80
2023/10/02 11:39:40;;;;;;;;;;;24.50;70.40;;;;;;5037759;28;43422;-78
2023/10/02 11:42:06;;;;;;;;;;;24.50;70.50;;;;;;5039911;28;42991;-79
2023/10/02 11:44:32;;;;;;;;;;;24.50;69.80;;;;;;5043829;28;43141;-81
2023/10/02 11:46:59;;;;;;;;;;;24.50;70.30;;;;;;5044950;28;43164;-78
2023/10/02 11:49:27;;;;;;;;;;;24.40;70.20;;;;;;5046191;28;43051;-79
2023/10/02 11:51:52;;;;;;;;;;;24.50;71.30;;;;;;5045307;28;42894;-82
2023/10/02 11:54:18;;;;;;;;;;;24.50;70.40;;;;;;5043188;28;43083;-80
2023/10/02 11:56:46;;;;;;;;;;;24.60;70.30;;;;;;5041083;28;43090;-82
2023/10/02 11:59:14;;;;;;;;;;;24.60;70.50;;;;;;5041792;28;43007;-79
2023/10/02 12:01:40;;;;;;;;;;;24.70;70.50;;;;;;5037445;28;42977;-81
2023/10/02 12:04:06;;;;;;;;;;;24.60;70.10;;;;;;5042567;28;43369;-80
2023/10/02 12:06:32;;;;;;;;;;;24.60;70.10;;;;;;5045549;28;43015;-80
2023/10/02 12:08:58;;;;;;;;;;;24.50;70.10;;;;;;5045401;28;43137;-77
2023/10/02 12:11:28;;;;;;;;;;;25.10;70.20;;;;;;5046029;28;42987;-80
2023/10/02 12:13:54;;;;;;;;;;;24.50;67.90;;;;;;5046213;28;43287;-79
2023/10/02 12:16:21;;;;;;;;;;;24.50;70.20;;;;;;5040230;28;43002;-79
2023/10/02 12:18:50;;;;;;;;;;;24.60;70.20;;;;;;5034844;28;43418;-78
2023/10/02 12:21:17;;;;;;;;;;;24.50;67.70;;;;;;5044519;28;42978;-81
2023/10/02 12:23:43;;;;;;;;;;;24.50;70.00;;;;;;5046762;28;42939;-79
2023/10/02 12:26:12;;;;;;;;;;;24.70;70.30;;;;;;5046582;28;43652;-82
2023/10/02 12:28:38;;;;;;;;;;;24.60;69.70;;;;;;5046342;28;42980;-80
2023/10/02 12:31:10;;;;;;;;;;;24.40;70.20;;;;;;5046093;28;44088;-81
2023/10/02 12:33:36;;;;;;;;;;;24.50;67.70;;;;;;5045170;28;43986;-80
2023/10/02 12:36:10;;;;;;;;;;;24.60;69.90;;;;;;5027774;28;43030;-78
2023/10/02 12:38:35;;;;;;;;;;;24.70;69.90;;;;;;5045785;28;42876;-82
2023/10/02 12:41:01;;;;;;;;;;;24.60;70.80;;;;;;5045850;28;43072;-80
2023/10/02 12:43:26;;;;;;;;;;;24.60;71.90;;;;;;5047069;28;43029;-80
2023/10/02 12:45:53;;;;;;;;;;;24.60;71.20;;;;;;5043994;28;44235;-80
2023/10/02 12:48:18;;;;;;;;;;;24.60;71.50;;;;;;5048458;28;42977;-82
2023/10/02 12:50:45;;;;;;;;;;;24.60;71.40;;;;;;5048437;28;43087;-81
2023/10/02 12:53:11;;;;;;;;;;;24.40;70.70;;;;;;5057934;28;43761;-81
2023/10/02 12:55:38;;;;;;;;;;;24.50;71.30;;;;;;5055406;28;43007;-81
2023/10/02 12:58:04;;;;;;;;;;;24.70;70.70;;;;;;5050076;28;43502;-78
2023/10/02 13:00:33;;;;;;;;;;;24.70;71.30;;;;;;5047801;28;43055;-80
2023/10/02 13:02:59;;;;;;;;;;;24.80;70.90;;;;;;5044838;28;42912;-78
2023/10/02 13:05:25;;;;;;;;;;;24.60;71.00;;;;;;5046701;28;43182;-78
2023/10/02 13:07:55;;;;;;;;;;;26.40;72.00;;;;;;5045243;28;43561;-79
2023/10/02 13:10:24;;;;;;;;;;;24.70;71.00;;;;;;5040868;28;42883;-78
2023/10/02 13:12:49;;;;;;;;;;;24.40;71.40;;;;;;5026813;28;43300;-81
2023/10/02 13:15:15;;;;;;;;;;;24.40;70.80;;;;;;5042181;28;42804;-79
2023/10/02 13:17:41;;;;;;;;;;;24.70;71.20;;;;;;5027749;28;44862;-79
2023/10/02 13:20:08;;;;;;;;;;;24.50;71.30;;;;;;5040735;28;43051;-79
2023/10/02 13:22:35;;;;;;;;;;;24.60;70.20;;;;;;5033360;28;44129;-78
2023/10/02 13:25:04;;;;;;;;;;;24.60;71.30;;;;;;5037785;28;43100;-82
2023/10/02 13:27:31;;;;;;;;;;;24.60;70.80;;;;;;5017936;28;43580;-79
2023/10/02 13:29:57;;;;;;;;;;;24.70;71.00;;;;;;5035494;28;43162;-80
2023/10/02 13:32:23;;;;;;;;;;;24.60;70.60;;;;;;5035703;28;43376;-80
2023/10/02 13:34:50;;;;;;;;;;;24.60;71.30;;;;;;5034472;28;42943;-80
2023/10/02 13:37:16;;;;;;;;;;;24.60;70.60;;;;;;5017942;28;43313;-80
2023/10/02 13:39:42;;;;;;;;;;;24.70;71.20;;;;;;5036020;28;42978;-80
2023/10/02 13:42:08;;;;;;;;;;;24.60;70.80;;;;;;5034141;28;43208;-80
2023/10/02 13:44:34;;;;;;;;;;;24.70;70.90;;;;;;5036584;28;43083;-79
2023/10/02 13:47:00;;;;;;;;;;;24.80;71.50;;;;;;5034947;28;43534;-80
2023/10/02 13:49:26;;;;;;;;;;;24.60;70.80;;;;;;5036891;28;42844;-80
2023/10/02 13:51:52;;;;;;;;;;;24.60;71.40;;;;;;5044042;28;43688;-81
2023/10/02 13:54:18;;;;;;;;;;;24.10;70.30;;;;;;5034275;28;42964;-79
2023/10/02 13:56:45;;;;;;;;;;;24.60;71.30;;;;;;5035287;28;44549;-79
2023/10/02 13:59:11;;;;;;;;;;;24.70;70.80;;;;;;5015812;28;43180;-79
2023/10/02 14:01:37;;;;;;;;;;;24.70;71.20;;;;;;5034864;28;43475;-84
2023/10/02 14:04:06;;;;;;;;;;;24.60;70.90;;;;;;5033717;28;43026;-82
2023/10/02 14:06:32;;;;;;;;;;;24.70;70.80;;;;;;5024542;28;43022;-79
2023/10/02 14:08:57;;;;;;;;;;;24.90;70.90;;;;;;5041506;28;42989;-81
2023/10/02 14:11:24;;;;;;;;;;;24.90;70.80;;;;;;5036991;28;43414;-81
2023/10/02 14:13:49;;;;;;;;;;;24.70;70.80;;;;;;5037449;28;42794;-80
2023/10/02 14:16:16;;;;;;;;;;;24.70;70.90;;;;;;5034808;28;43533;-79
2023/10/02 14:18:43;;;;;;;;;;;24.60;71.00;;;;;;5028330;28;43054;-83
2023/10/02 14:21:09;;;;;;;;;;;24.60;71.20;;;;;;5040049;28;43162;-81
2023/10/02 14:23:36;;;;;;;;;;;24.80;71.20;;;;;;5033303;28;43097;-80
2023/10/02 14:26:05;;;;;;;;;;;24.80;71.10;;;;;;5032808;28;43550;-82
2023/10/02 14:28:31;;;;;;;;;;;24.60;71.00;;;;;;5034764;28;43071;-81
2023/10/02 14:30:56;;;;;;;;;;;24.70;71.00;;;;;;5040755;28;43060;-80
2023/10/02 14:33:25;;;;;;;;;;;24.70;71.10;;;;;;5039023;28;44797;-79
2023/10/02 14:35:54;;;;;;;;;;;24.80;70.00;;;;;;5015668;28;45064;-79
2023/10/02 14:38:23;;;;;;;;;;;24.60;68.50;;;;;;5035597;28;42950;-80
2023/10/02 14:40:49;;;;;;;;;;;25.10;70.90;;;;;;5037383;28;43392;-79
2023/10/02 14:43:15;;;;;;;;;;;24.70;71.10;;;;;;5043326;28;43060;-80
2023/10/02 14:45:42;;;;;;;;;;;24.40;70.70;;;;;;5041599;28;42907;-81
2023/10/02 14:48:07;;;;;;;;;;;24.70;70.90;;;;;;5042229;28;42918;-80
2023/10/02 14:50:37;;;;;;;;;;;24.80;70.40;;;;;;5031430;28;43653;-79
2023/10/02 14:53:03;;;;;;;;;;;24.60;70.90;;;;;;5027010;28;43019;-80
2023/10/02 14:55:31;;;;;;;;;;;24.70;70.30;;;;;;5041590;28;43084;-80
2023/10/02 14:57:56;;;;;;;;;;;24.80;71.00;;;;;;5031033;28;45429;-80
2023/10/02 15:00:22;;;;;;;;;;;24.80;71.20;;;;;;5033723;28;43646;-79
2023/10/02 15:02:50;;;;;;;;;;;24.70;70.80;;;;;;5043892;28;42882;-80
2023/10/02 15:05:18;;;;;;;;;;;24.80;70.80;;;;;;5041682;28;43719;-80
2023/10/02 15:07:45;;;;;;;;;;;25.60;70.60;;;;;;5041706;28;43062;-80
2023/10/02 15:10:16;;;;;;;;;;;24.70;70.50;;;;;;5041098;28;43918;-80
2023/10/02 15:12:41;;;;;;;;;;;24.80;67.60;;;;;;5022158;28;43058;-83
2023/10/02 15:15:13;;;;;;;;;;;24.90;69.90;;;;;;5021988;28;43029;-81
2023/10/02 15:20:32;;;;;;;;;;;24.80;67.40;;;;;;5039628;28;43233;-83
2023/10/02 15:22:57;;;;;;;;;;;24.80;69.50;;;;;;5023332;28;44222;-81